Terminal Aerodrome Forecast
Issued by NWS Sterling, VA

Current Version | Previous Version | Text Only | Print | Product List | Glossary Off
Versions: 1 2 3 4 5 6 7 8 9 10 11 12 13 14 15 16 17 18 19 20 21 22 23 24 25

356
FTUS41 KLWX 061735
TAFIAD
TAF
KIAD 061735Z 0618/0724 08006KT 5SM RA SCT025 OVC060
     FM062000 07007KT 3SM RA OVC008
     FM062200 06007KT 3SM -RA OVC003
     FM070600 34005KT 5SM BR OVC008
     FM071200 32006KT P6SM BKN050
     FM071800 32010G16KT P6SM FEW200
     FM072300 34005KT P6SM FEW200=

USA.gov is the U.S. government's official web portal to all federal, state and local government web resources and services.